createdAt,value
2022-10-18T00:01:07.378Z,51.04
2022-10-18T00:06:12.039Z,51.53
2022-10-18T00:08:39.993Z,51.74
2022-10-18T00:11:08.220Z,51.35
2022-10-18T00:13:36.598Z,51.45
2022-10-18T00:16:09.747Z,51.58
2022-10-18T00:18:37.746Z,51.80
2022-10-18T00:21:18.471Z,51.84
2022-10-18T00:23:47.989Z,51.49
2022-10-18T00:26:21.204Z,51.71
2022-10-18T00:28:57.369Z,52.05
2022-10-18T00:31:31.990Z,51.80
2022-10-18T00:34:02.377Z,51.99
2022-10-18T00:36:32.743Z,51.84
2022-10-18T00:39:02.185Z,51.99
2022-10-18T00:41:32.201Z,52.04
2022-10-18T00:44:12.452Z,52.05
2022-10-18T00:46:46.953Z,52.19
2022-10-18T00:49:19.154Z,52.23
2022-10-18T00:51:51.605Z,52.22
2022-10-18T00:54:20.906Z,52.29
2022-10-18T00:56:49.542Z,52.27
2022-10-18T00:59:18.571Z,52.40
2022-10-18T01:01:46.734Z,52.26
2022-10-18T01:04:16.975Z,52.29
2022-10-18T01:07:03.883Z,52.40
2022-10-18T01:09:40.625Z,52.61
2022-10-18T01:12:35.389Z,52.66
2022-10-18T01:15:11.509Z,52.52
2022-10-18T01:17:54.362Z,52.56
2022-10-18T01:20:22.114Z,52.57
2022-10-18T01:23:05.376Z,52.53
2022-10-18T01:25:49.983Z,52.57
2022-10-18T01:28:29.945Z,52.59
2022-10-18T01:31:05.447Z,52.74
2022-10-18T01:33:58.390Z,52.76
2022-10-18T01:36:32.402Z,52.80
2022-10-18T01:39:05.904Z,52.85
2022-10-18T01:41:37.861Z,52.89
2022-10-18T01:44:09.874Z,52.93
2022-10-18T01:46:39.818Z,52.92
2022-10-18T01:49:07.516Z,52.96
2022-10-18T01:51:35.293Z,53.18
2022-10-18T01:54:03.673Z,53.30
2022-10-18T01:56:58.538Z,53.15
2022-10-18T01:59:51.727Z,53.27
2022-10-18T02:02:36.794Z,53.55
2022-10-18T02:05:40.438Z,53.62
2022-10-18T02:08:23.415Z,53.79
2022-10-18T02:11:03.665Z,53.68
2022-10-18T02:13:53.934Z,53.84
2022-10-18T02:16:26.933Z,53.69
2022-10-18T02:19:02.038Z,53.83
2022-10-18T02:21:30.499Z,54.03
2022-10-18T02:24:02.231Z,54.07
2022-10-18T02:26:30.071Z,54.23
2022-10-18T02:28:57.969Z,54.19
2022-10-18T02:31:34.632Z,54.19
2022-10-18T02:34:23.876Z,54.17
2022-10-18T02:37:02.169Z,54.16
2022-10-18T02:39:37.059Z,54.20
2022-10-18T02:42:07.031Z,54.24
2022-10-18T02:44:35.487Z,54.36
2022-10-18T02:47:04.316Z,54.22
2022-10-18T02:49:32.013Z,54.29
2022-10-18T02:51:59.831Z,54.32
2022-10-18T02:54:27.551Z,54.22
2022-10-18T02:56:55.559Z,54.27
2022-10-18T02:59:23.346Z,54.34
2022-10-18T03:01:51.216Z,54.29
2022-10-18T03:04:19.257Z,54.38
2022-10-18T03:06:47.089Z,54.46
2022-10-18T03:09:14.868Z,54.37
2022-10-18T03:11:42.558Z,54.47
2022-10-18T03:14:10.445Z,54.45
2022-10-18T03:16:38.154Z,54.43
2022-10-18T03:19:05.907Z,54.51
2022-10-18T03:21:33.773Z,54.54
2022-10-18T03:24:02.631Z,54.54
2022-10-18T03:26:30.344Z,54.67
2022-10-18T03:28:58.189Z,54.84
2022-10-18T03:31:26.175Z,55.07
2022-10-18T03:33:53.935Z,55.09
2022-10-18T03:36:21.666Z,55.13
2022-10-18T03:38:49.484Z,55.01
2022-10-18T03:41:17.245Z,55.14
2022-10-18T03:43:45.054Z,55.00
2022-10-18T03:46:13.245Z,55.22
2022-10-18T03:48:41.028Z,55.32
2022-10-18T03:51:08.800Z,55.39
2022-10-18T03:53:36.816Z,55.35
2022-10-18T03:56:04.724Z,55.24
2022-10-18T03:58:35.346Z,55.33
2022-10-18T04:01:03.349Z,55.24
2022-10-18T04:03:31.199Z,55.42
2022-10-18T04:06:00.788Z,55.55
2022-10-18T04:08:28.485Z,55.52
2022-10-18T04:10:56.484Z,55.44
2022-10-18T04:13:24.369Z,55.34
2022-10-18T04:15:52.202Z,55.45
2022-10-18T04:18:19.894Z,55.56
2022-10-18T04:20:47.649Z,55.63
2022-10-18T04:23:15.378Z,55.54
2022-10-18T04:28:15.894Z,55.64
2022-10-18T04:30:43.743Z,55.70
2022-10-18T04:33:11.493Z,55.69
2022-10-18T04:35:39.181Z,55.78
2022-10-18T04:38:06.965Z,55.71
2022-10-18T04:40:34.816Z,55.72
2022-10-18T04:43:02.763Z,55.72
2022-10-18T04:45:30.503Z,55.65
2022-10-18T04:47:58.231Z,55.77
2022-10-18T04:50:26.042Z,55.80
2022-10-18T04:52:53.807Z,55.87
2022-10-18T04:55:21.588Z,55.89
2022-10-18T04:57:49.334Z,55.82
2022-10-18T05:00:17.371Z,55.85
2022-10-18T05:02:45.409Z,55.79
2022-10-18T05:05:14.246Z,55.78
2022-10-18T05:07:42.386Z,55.98
2022-10-18T05:10:10.761Z,55.90
2022-10-18T05:12:38.540Z,55.93
2022-10-18T05:15:06.860Z,56.10
2022-10-18T05:17:34.588Z,56.19
2022-10-18T05:20:02.917Z,56.43
2022-10-18T05:22:31.156Z,56.37
2022-10-18T05:24:59.298Z,56.51
2022-10-18T05:27:29.003Z,56.46
2022-10-18T05:29:58.913Z,56.44
2022-10-18T05:32:29.416Z,56.56
2022-10-18T05:34:57.421Z,56.64
2022-10-18T05:37:28.305Z,56.62
2022-10-18T05:39:56.339Z,56.50
2022-10-18T05:42:24.085Z,56.59
2022-10-18T05:44:51.820Z,56.50
2022-10-18T05:47:19.590Z,56.40
2022-10-18T05:49:47.905Z,56.28
2022-10-18T05:52:15.726Z,56.28
2022-10-18T05:54:43.525Z,56.21
2022-10-18T05:57:11.335Z,55.97
2022-10-18T05:59:39.132Z,55.79
2022-10-18T06:02:07.151Z,55.44
2022-10-18T06:04:35.278Z,54.77
2022-10-18T06:07:03.576Z,54.53
2022-10-18T06:09:31.260Z,54.47
2022-10-18T06:11:59.106Z,54.39
2022-10-18T06:14:26.879Z,54.35
2022-10-18T06:16:56.571Z,54.36
2022-10-18T06:19:24.390Z,54.28
2022-10-18T06:21:52.069Z,54.11
2022-10-18T06:24:21.819Z,53.51
2022-10-18T06:26:50.111Z,52.92
2022-10-18T06:29:17.919Z,52.49
2022-10-18T06:31:46.135Z,52.42
2022-10-18T06:34:13.916Z,52.76
2022-10-18T06:36:41.618Z,53.00
2022-10-18T06:39:10.482Z,52.93
2022-10-18T06:41:38.222Z,52.87
2022-10-18T06:44:20.467Z,52.79
2022-10-18T06:46:49.341Z,52.72
2022-10-18T06:49:19.207Z,52.49
2022-10-18T06:51:47.341Z,51.99
2022-10-18T06:54:18.922Z,51.68
2022-10-18T06:56:46.905Z,51.59
2022-10-18T06:59:15.205Z,51.15
2022-10-18T07:01:43.657Z,50.56
2022-10-18T07:04:11.479Z,49.72
2022-10-18T07:06:39.234Z,49.00
2022-10-18T07:09:07.007Z,48.41
2022-10-18T07:11:35.005Z,47.63
2022-10-18T07:14:04.865Z,46.63
2022-10-18T07:16:33.554Z,46.06
2022-10-18T07:19:01.608Z,45.14
2022-10-18T07:21:29.828Z,44.28
2022-10-18T07:23:57.739Z,43.89
2022-10-18T07:26:31.379Z,43.17
2022-10-18T07:29:02.693Z,43.15
2022-10-18T07:31:30.774Z,42.53
2022-10-18T07:33:58.813Z,41.61
2022-10-18T07:36:27.130Z,42.02
2022-10-18T07:38:55.188Z,40.83
2022-10-18T07:41:23.303Z,40.95
2022-10-18T07:43:52.778Z,40.73
2022-10-18T07:46:22.485Z,40.34
2022-10-18T07:48:51.190Z,39.74
2022-10-18T07:51:22.349Z,39.02
2022-10-18T07:53:50.198Z,38.75
2022-10-18T07:56:21.208Z,38.52
2022-10-18T07:58:52.025Z,38.43
2022-10-18T08:01:21.557Z,38.42
2022-10-18T08:03:50.112Z,38.24
2022-10-18T08:06:19.675Z,37.12
2022-10-18T08:08:47.777Z,37.25
2022-10-18T08:11:18.719Z,37.09
2022-10-18T08:13:47.295Z,36.33
2022-10-18T08:16:24.736Z,36.07
2022-10-18T08:18:53.299Z,35.90
2022-10-18T08:21:21.461Z,36.19
2022-10-18T08:23:49.896Z,35.73
2022-10-18T08:26:20.262Z,34.87
2022-10-18T08:28:54.153Z,34.80
2022-10-18T08:31:31.902Z,34.42
2022-10-18T08:34:00.310Z,34.29
2022-10-18T08:36:28.391Z,34.44
2022-10-18T08:38:56.338Z,34.62
2022-10-18T08:41:46.403Z,33.94
2022-10-18T08:44:30.332Z,33.39
2022-10-18T08:47:06.013Z,32.99
2022-10-18T08:49:55.777Z,32.99
2022-10-18T08:52:34.034Z,32.45
2022-10-18T08:55:03.914Z,31.68
2022-10-18T08:57:33.154Z,32.48
2022-10-18T09:00:12.544Z,32.12
2022-10-18T09:02:46.479Z,31.81
2022-10-18T09:06:09.019Z,31.61
2022-10-18T09:08:48.914Z,30.93
2022-10-18T09:11:33.665Z,31.01
2022-10-18T09:14:07.141Z,30.80
2022-10-18T09:17:07.334Z,30.98
2022-10-18T09:19:57.638Z,30.84
2022-10-18T09:22:36.930Z,31.04
2022-10-18T09:25:36.984Z,30.53
2022-10-18T09:28:23.156Z,30.89
2022-10-18T09:31:11.472Z,31.38
2022-10-18T09:33:50.504Z,31.28
2022-10-18T09:36:22.009Z,31.09
2022-10-18T09:38:56.111Z,30.70
2022-10-18T09:41:34.560Z,30.08
2022-10-18T09:44:35.262Z,30.37
2022-10-18T09:47:18.282Z,29.93
2022-10-18T09:49:51.030Z,28.53
2022-10-18T09:52:25.578Z,27.76
2022-10-18T09:54:57.434Z,27.79
2022-10-18T09:57:35.763Z,28.27
2022-10-18T10:00:07.075Z,28.10
2022-10-18T10:02:34.892Z,27.55
2022-10-18T10:05:02.729Z,27.79
2022-10-18T10:07:41.484Z,27.88
2022-10-18T10:10:24.030Z,27.82
2022-10-18T10:13:24.566Z,28.08
2022-10-18T10:15:57.617Z,28.60
2022-10-18T10:18:31.264Z,28.87
2022-10-18T10:21:03.342Z,28.94
2022-10-18T10:23:39.121Z,29.33
2022-10-18T10:26:19.790Z,30.13
2022-10-18T10:28:48.961Z,30.54
2022-10-18T10:31:31.234Z,30.67
2022-10-18T10:34:03.776Z,30.89
2022-10-18T10:36:33.506Z,31.33
2022-10-18T10:39:04.387Z,31.33
2022-10-18T10:44:15.491Z,31.72
2022-10-18T10:46:43.479Z,32.03
2022-10-18T10:49:40.747Z,32.30
2022-10-18T10:52:28.997Z,32.71
2022-10-18T10:55:06.120Z,33.06
2022-10-18T10:57:39.108Z,33.17
2022-10-18T11:00:07.663Z,32.96
2022-10-18T11:02:36.828Z,33.07
2022-10-18T11:05:25.058Z,33.22
2022-10-18T11:07:57.070Z,33.31
2022-10-18T11:10:29.399Z,33.60
2022-10-18T11:13:28.989Z,33.35
2022-10-18T11:16:20.219Z,33.58
2022-10-18T11:18:51.585Z,33.38
2022-10-18T11:21:25.780Z,33.37
2022-10-18T11:23:54.356Z,33.10
2022-10-18T11:26:28.225Z,33.26
2022-10-18T11:29:25.663Z,33.34
2022-10-18T11:32:26.310Z,33.65
2022-10-18T11:35:02.841Z,34.18
2022-10-18T11:37:39.796Z,34.21
2022-10-18T11:40:26.562Z,34.47
2022-10-18T11:43:16.976Z,34.90
2022-10-18T11:46:29.960Z,35.19
2022-10-18T11:49:27.565Z,35.31
2022-10-18T11:52:09.203Z,35.24
2022-10-18T11:55:31.893Z,35.81
2022-10-18T11:58:31.163Z,36.29
2022-10-18T12:01:35.983Z,36.23
2022-10-18T12:04:11.946Z,36.87
2022-10-18T12:06:42.402Z,37.40
2022-10-18T12:09:32.352Z,37.64
2022-10-18T12:12:07.370Z,38.58
2022-10-18T12:14:45.857Z,39.23
2022-10-18T12:17:50.039Z,40.02
2022-10-18T12:20:30.016Z,39.47
2022-10-18T12:23:09.174Z,40.64
2022-10-18T12:25:42.118Z,39.88
2022-10-18T12:28:28.883Z,39.69
2022-10-18T12:31:19.227Z,39.58
2022-10-18T12:33:51.742Z,39.49
2022-10-18T12:36:22.723Z,39.31
2022-10-18T12:39:05.585Z,39.29
2022-10-18T12:41:35.973Z,39.20
2022-10-18T12:44:19.292Z,38.59
2022-10-18T12:46:53.626Z,37.88
2022-10-18T12:49:41.347Z,37.57
2022-10-18T12:52:23.889Z,36.94
2022-10-18T12:55:16.811Z,36.59
2022-10-18T12:57:51.502Z,36.39
2022-10-18T13:00:31.697Z,36.32
2022-10-18T13:03:26.134Z,36.65
2022-10-18T13:06:01.803Z,37.20
2022-10-18T13:08:42.914Z,37.20
2022-10-18T13:11:10.661Z,37.45
2022-10-18T13:13:58.059Z,37.77
2022-10-18T13:16:28.853Z,38.13
2022-10-18T13:19:03.459Z,38.48
2022-10-18T13:21:56.216Z,38.80
2022-10-18T13:24:47.243Z,39.08
2022-10-18T13:27:36.099Z,39.18
2022-10-18T13:30:22.836Z,39.75
2022-10-18T13:33:20.254Z,39.95
2022-10-18T13:35:59.084Z,40.43
2022-10-18T13:38:38.438Z,40.73
2022-10-18T13:41:15.805Z,40.97
2022-10-18T13:43:52.846Z,42.11
2022-10-18T13:46:44.787Z,45.22
2022-10-18T13:49:40.328Z,46.73
2022-10-18T13:52:22.065Z,47.93
2022-10-18T13:54:57.316Z,49.03
2022-10-18T13:57:40.346Z,49.37
2022-10-18T14:00:28.635Z,49.51
2022-10-18T14:03:56.832Z,50.92
2022-10-18T14:06:30.499Z,51.11
2022-10-18T14:09:26.245Z,51.49
2022-10-18T14:12:34.378Z,51.29
2022-10-18T14:15:10.596Z,51.39
2022-10-18T14:17:49.997Z,51.35
2022-10-18T14:20:49.570Z,51.46
2022-10-18T14:23:32.012Z,51.69
2022-10-18T14:26:21.144Z,52.10
2022-10-18T14:29:18.488Z,51.64
2022-10-18T14:31:53.793Z,51.98
2022-10-18T14:34:22.406Z,52.34
2022-10-18T14:36:51.093Z,52.48
2022-10-18T14:39:23.214Z,53.08
2022-10-18T14:41:53.995Z,52.84
2022-10-18T14:44:30.722Z,53.04
2022-10-18T14:47:12.818Z,54.09
2022-10-18T14:49:45.125Z,54.45
2022-10-18T14:52:18.397Z,54.14
2022-10-18T14:54:46.897Z,54.00
2022-10-18T14:57:27.406Z,54.35
2022-10-18T15:00:01.914Z,55.21
2022-10-18T15:02:33.361Z,55.56
2022-10-18T15:05:17.730Z,55.46
2022-10-18T15:07:46.332Z,56.28
2022-10-18T15:10:18.336Z,57.38
2022-10-18T15:13:11.388Z,57.93
2022-10-18T15:15:36.895Z,57.09
2022-10-18T15:18:06.913Z,57.04
2022-10-18T15:20:42.612Z,57.62
2022-10-18T15:23:26.902Z,57.14
2022-10-18T15:26:08.014Z,57.59
2022-10-18T15:28:51.520Z,56.79
2022-10-18T15:31:27.419Z,56.83
2022-10-18T15:34:12.171Z,56.35
2022-10-18T15:36:40.593Z,56.28
2022-10-18T15:39:31.808Z,56.47
2022-10-18T15:42:01.085Z,56.50
2022-10-18T15:44:49.312Z,56.58
2022-10-18T15:47:24.580Z,56.71
2022-10-18T15:49:56.742Z,57.05
2022-10-18T15:52:36.679Z,56.82
2022-10-18T15:55:31.721Z,56.88
2022-10-18T15:58:11.622Z,56.80
2022-10-18T16:00:40.244Z,56.78
2022-10-18T16:03:09.701Z,57.08
2022-10-18T16:05:38.905Z,57.05
2022-10-18T16:08:06.747Z,57.11
2022-10-18T16:10:34.613Z,57.73
2022-10-18T16:13:02.733Z,57.52
2022-10-18T16:15:31.085Z,57.71
2022-10-18T16:17:59.494Z,57.84
2022-10-18T16:20:28.284Z,57.64
2022-10-18T16:22:56.334Z,57.69
2022-10-18T16:25:24.905Z,57.89
2022-10-18T16:27:53.082Z,58.15
2022-10-18T16:30:22.718Z,57.88
2022-10-18T16:32:50.555Z,58.00
2022-10-18T16:35:18.624Z,58.10
2022-10-18T16:37:47.344Z,58.04
2022-10-18T16:40:24.590Z,58.06
2022-10-18T16:42:52.672Z,58.19
2022-10-18T16:45:21.324Z,58.28
2022-10-18T16:47:49.845Z,58.20
2022-10-18T16:50:20.302Z,58.25
2022-10-18T16:52:48.948Z,58.48
2022-10-18T16:55:22.145Z,58.57
2022-10-18T16:57:51.545Z,58.70
2022-10-18T17:00:24.097Z,58.87
2022-10-18T17:02:52.937Z,58.81
2022-10-18T17:05:23.569Z,59.09
2022-10-18T17:07:52.179Z,59.18
2022-10-18T17:10:21.703Z,59.26
2022-10-18T17:12:50.257Z,59.18
2022-10-18T17:15:18.918Z,59.06
2022-10-18T17:17:50.425Z,59.22
2022-10-18T17:20:28.070Z,59.30
2022-10-18T17:22:56.505Z,59.42
2022-10-18T17:25:24.617Z,59.46
2022-10-18T17:27:53.037Z,59.69
2022-10-18T17:30:21.471Z,59.90
2022-10-18T17:32:49.494Z,59.86
2022-10-18T17:35:17.839Z,60.08
2022-10-18T17:37:49.126Z,60.26
2022-10-18T17:40:17.132Z,60.38
2022-10-18T17:42:45.269Z,60.30
2022-10-18T17:45:13.408Z,60.32
2022-10-18T17:47:41.417Z,60.43
2022-10-18T17:50:09.509Z,60.75
2022-10-18T17:52:45.427Z,60.55
2022-10-18T17:58:37.017Z,60.93
2022-10-18T18:01:13.994Z,60.97
2022-10-18T18:03:42.177Z,60.85
2022-10-18T18:06:20.585Z,60.98
2022-10-18T18:08:49.830Z,61.07
2022-10-18T18:11:18.373Z,61.16
2022-10-18T18:13:46.227Z,61.43
2022-10-18T18:16:23.188Z,61.43
2022-10-18T18:18:54.755Z,61.57
2022-10-18T18:21:23.449Z,61.79
2022-10-18T18:23:51.702Z,61.74
2022-10-18T18:26:22.205Z,61.84
2022-10-18T18:28:50.535Z,61.96
2022-10-18T18:31:24.260Z,62.11
2022-10-18T18:33:54.605Z,62.10
2022-10-18T18:36:25.665Z,62.15
2022-10-18T18:38:56.894Z,62.34
2022-10-18T18:41:28.086Z,62.52
2022-10-18T18:44:01.442Z,62.56
2022-10-18T18:46:32.870Z,62.57
2022-10-18T18:49:00.753Z,62.88
2022-10-18T18:51:28.777Z,62.72
2022-10-18T18:53:56.653Z,62.70
2022-10-18T18:56:27.061Z,62.87
2022-10-18T18:58:56.775Z,62.92
2022-10-18T19:01:30.033Z,62.93
2022-10-18T19:03:59.478Z,63.11
2022-10-18T19:06:30.879Z,63.28
2022-10-18T19:09:04.638Z,63.41
2022-10-18T19:11:35.986Z,63.49
2022-10-18T19:14:05.801Z,63.57
2022-10-18T19:16:36.029Z,63.40
2022-10-18T19:19:06.232Z,63.57
2022-10-18T19:21:39.622Z,63.54
2022-10-18T19:24:08.276Z,63.59
2022-10-18T19:26:42.941Z,63.65
2022-10-18T19:29:25.095Z,63.67
2022-10-18T19:31:55.875Z,63.71
2022-10-18T19:34:26.965Z,63.62
2022-10-18T19:36:55.004Z,63.88
2022-10-18T19:39:26.201Z,63.85
2022-10-18T19:41:57.838Z,63.76
2022-10-18T19:44:29.273Z,63.78
2022-10-18T19:46:57.784Z,63.81
2022-10-18T19:49:26.164Z,64.03
2022-10-18T19:51:54.724Z,64.10
2022-10-18T19:54:22.959Z,64.28
2022-10-18T19:56:51.576Z,64.31
2022-10-18T19:59:20.569Z,64.28
2022-10-18T20:01:48.499Z,64.53
2022-10-18T20:04:17.122Z,64.47
2022-10-18T20:06:45.057Z,64.68
2022-10-18T20:09:17.669Z,64.75
2022-10-18T20:11:48.456Z,64.68
2022-10-18T20:14:16.271Z,64.75
2022-10-18T20:16:44.166Z,64.79
2022-10-18T20:19:12.027Z,64.58
2022-10-18T20:21:40.125Z,64.78
2022-10-18T20:24:09.331Z,64.95
2022-10-18T20:26:37.329Z,65.01
2022-10-18T20:29:05.593Z,64.97
2022-10-18T20:31:39.322Z,65.09
2022-10-18T20:34:11.412Z,65.02
2022-10-18T20:36:40.259Z,64.92
2022-10-18T20:39:08.193Z,65.03
2022-10-18T20:41:40.922Z,65.21
2022-10-18T20:44:13.500Z,65.31
2022-10-18T20:46:42.710Z,65.35
2022-10-18T20:49:13.751Z,65.35
2022-10-18T20:51:41.876Z,65.50
2022-10-18T20:54:10.995Z,65.47
2022-10-18T20:56:39.377Z,65.44
2022-10-18T20:59:10.258Z,65.43
2022-10-18T21:01:39.430Z,65.45
2022-10-18T21:04:09.648Z,65.45
2022-10-18T21:06:41.009Z,65.46
2022-10-18T21:09:13.472Z,65.50
2022-10-18T21:11:45.201Z,65.59
2022-10-18T21:14:18.900Z,65.51
2022-10-18T21:16:47.629Z,65.54
2022-10-18T21:19:26.577Z,65.61
2022-10-18T21:21:56.456Z,65.81
2022-10-18T21:24:25.901Z,66.05
2022-10-18T21:26:54.743Z,66.10
2022-10-18T21:29:24.733Z,66.00
2022-10-18T21:31:55.532Z,66.02
2022-10-18T21:34:23.671Z,66.13
2022-10-18T21:36:51.537Z,66.22
2022-10-18T21:41:57.188Z,66.32
2022-10-18T21:44:25.169Z,66.32
2022-10-18T21:46:53.142Z,66.49
2022-10-18T21:49:23.413Z,66.49
2022-10-18T21:51:51.306Z,66.50
2022-10-18T21:54:19.147Z,66.55
2022-10-18T21:56:46.941Z,66.46
2022-10-18T21:59:14.805Z,66.57
2022-10-18T22:01:44.281Z,66.55
2022-10-18T22:04:40.945Z,66.49
2022-10-18T22:07:08.726Z,66.54
2022-10-18T22:09:36.576Z,66.53
2022-10-18T22:12:05.061Z,66.56
2022-10-18T22:14:32.943Z,66.56
2022-10-18T22:17:01.083Z,66.50
2022-10-18T22:19:29.143Z,66.54
2022-10-18T22:21:57.034Z,66.53
2022-10-18T22:24:24.917Z,66.66
2022-10-18T22:26:52.867Z,66.73
2022-10-18T22:29:21.571Z,66.82
2022-10-18T22:31:52.673Z,66.88
2022-10-18T22:34:23.302Z,66.85
2022-10-18T22:36:51.101Z,66.97
2022-10-18T22:39:19.260Z,66.99
2022-10-18T22:41:47.440Z,67.12
2022-10-18T22:44:15.477Z,67.22
2022-10-18T22:46:43.336Z,67.27
2022-10-18T22:49:12.054Z,67.37
2022-10-18T22:51:40.458Z,67.35
2022-10-18T22:54:08.576Z,67.36
2022-10-18T22:56:36.497Z,67.24
2022-10-18T22:59:04.564Z,67.32
2022-10-18T23:01:32.414Z,67.65
2022-10-18T23:04:01.466Z,67.71
2022-10-18T23:06:34.938Z,67.71
2022-10-18T23:09:08.912Z,67.68
2022-10-18T23:11:37.310Z,67.55
2022-10-18T23:14:06.852Z,67.40
2022-10-18T23:16:35.106Z,67.42
2022-10-18T23:19:03.288Z,67.63
2022-10-18T23:21:31.109Z,67.42
2022-10-18T23:23:59.013Z,67.46
2022-10-18T23:26:28.270Z,67.52
2022-10-18T23:28:56.418Z,67.50
2022-10-18T23:31:26.945Z,67.54
2022-10-18T23:33:58.769Z,67.65
2022-10-18T23:36:26.754Z,67.68
2022-10-18T23:38:55.429Z,67.72
2022-10-18T23:41:24.602Z,67.76
2022-10-18T23:43:53.079Z,67.82
2022-10-18T23:46:22.129Z,67.78
2022-10-18T23:48:50.291Z,67.76
2022-10-18T23:51:18.289Z,67.80
2022-10-18T23:53:46.298Z,67.89
2022-10-18T23:56:15.869Z,68.02
2022-10-18T23:58:44.870Z,68.06
